createdAt,value
2017-10-16T00:00:30.964Z,62.30
2017-10-16T00:02:59.625Z,62.10
2017-10-16T00:05:28.604Z,62.40
2017-10-16T00:07:57.786Z,62.90
2017-10-16T00:10:26.290Z,62.50
2017-10-16T00:12:55.584Z,62.50
2017-10-16T00:15:24.684Z,62.30
2017-10-16T00:17:53.725Z,62.00
2017-10-16T00:20:22.144Z,62.00
2017-10-16T00:22:50.384Z,61.70
2017-10-16T00:25:18.804Z,61.50
2017-10-16T00:27:47.204Z,61.80
2017-10-16T00:30:16.484Z,61.60
2017-10-16T00:32:44.544Z,61.60
2017-10-16T00:35:13.645Z,62.90
2017-10-16T00:37:42.024Z,62.10
2017-10-16T00:40:10.484Z,62.40
2017-10-16T00:42:38.984Z,62.60
2017-10-16T00:45:07.843Z,62.50
2017-10-16T00:47:36.343Z,62.50
2017-10-16T00:50:04.964Z,62.50
2017-10-16T00:52:34.364Z,62.70
2017-10-16T00:55:03.444Z,62.80
2017-10-16T00:57:32.823Z,62.80
2017-10-16T01:00:01.284Z,62.90
2017-10-16T01:02:29.704Z,62.60
2017-10-16T01:04:59.024Z,62.80
2017-10-16T01:07:27.524Z,62.80
2017-10-16T01:09:55.964Z,63.10
2017-10-16T01:12:24.425Z,63.10
2017-10-16T01:14:54.203Z,63.30
2017-10-16T01:17:22.644Z,63.30
2017-10-16T01:19:51.703Z,63.00
2017-10-16T01:22:20.207Z,63.00
2017-10-16T01:24:48.684Z,62.80
2017-10-16T01:27:16.943Z,62.70
2017-10-16T01:29:45.643Z,62.80
2017-10-16T01:32:14.084Z,62.30
2017-10-16T01:34:42.504Z,62.80
2017-10-16T01:37:10.924Z,62.60
2017-10-16T01:39:39.250Z,62.80
2017-10-16T01:42:07.604Z,63.00
2017-10-16T01:44:36.024Z,63.20
2017-10-16T01:47:05.104Z,63.60
2017-10-16T01:49:33.712Z,63.50
2017-10-16T01:52:02.764Z,63.20
2017-10-16T01:54:31.264Z,63.20
2017-10-16T01:56:59.843Z,63.00
2017-10-16T01:59:29.386Z,63.30
2017-10-16T02:01:57.492Z,63.30
2017-10-16T02:04:26.004Z,63.30
2017-10-16T02:06:54.584Z,63.60
2017-10-16T02:09:23.269Z,63.90
2017-10-16T02:11:51.424Z,64.00
2017-10-16T02:14:19.824Z,63.60
2017-10-16T02:16:48.124Z,63.80
2017-10-16T02:19:17.183Z,63.10
2017-10-16T02:21:45.667Z,63.10
2017-10-16T02:24:14.144Z,62.60
2017-10-16T02:26:42.464Z,62.30
2017-10-16T02:29:10.903Z,62.30
2017-10-16T02:31:38.944Z,61.90
2017-10-16T02:34:07.304Z,61.90
2017-10-16T02:36:35.504Z,61.90
2017-10-16T02:39:03.804Z,61.70
2017-10-16T02:41:32.084Z,61.90
2017-10-16T02:44:00.363Z,61.70
2017-10-16T02:46:28.624Z,61.50
2017-10-16T02:48:56.804Z,61.50
2017-10-16T02:51:25.184Z,61.20
2017-10-16T02:53:53.343Z,61.50
2017-10-16T02:56:21.523Z,60.90
2017-10-16T02:58:49.924Z,60.60
2017-10-16T03:01:19.183Z,60.70
2017-10-16T03:03:47.903Z,60.60
2017-10-16T03:06:17.184Z,61.10
2017-10-16T03:08:45.443Z,61.10
2017-10-16T03:11:14.044Z,61.30
2017-10-16T03:13:42.610Z,61.50
2017-10-16T03:16:11.124Z,61.90
2017-10-16T03:18:40.303Z,62.70
2017-10-16T03:21:08.584Z,62.70
2017-10-16T03:23:36.784Z,63.10
2017-10-16T03:26:04.884Z,63.30
2017-10-16T03:28:33.304Z,63.50
2017-10-16T03:31:01.765Z,63.80
2017-10-16T03:33:30.183Z,64.10
2017-10-16T03:35:59.224Z,63.20
2017-10-16T03:38:27.332Z,63.20
2017-10-16T03:40:55.784Z,63.00
2017-10-16T03:43:24.284Z,63.20
2017-10-16T03:45:52.544Z,63.20
2017-10-16T03:48:20.986Z,63.10
2017-10-16T03:50:49.424Z,63.00
2017-10-16T03:53:17.684Z,63.30
2017-10-16T03:55:45.763Z,63.40
2017-10-16T03:58:14.143Z,63.50
2017-10-16T04:00:42.423Z,63.50
2017-10-16T04:03:10.904Z,63.40
2017-10-16T04:05:39.285Z,63.20
2017-10-16T04:08:07.344Z,63.90
2017-10-16T04:10:35.943Z,62.90
2017-10-16T04:13:05.344Z,62.80
2017-10-16T04:15:33.484Z,62.80
2017-10-16T04:18:01.883Z,62.80
2017-10-16T04:20:30.104Z,62.90
2017-10-16T04:22:58.964Z,63.20
2017-10-16T04:25:28.064Z,62.40
2017-10-16T04:27:56.544Z,62.30
2017-10-16T04:30:25.744Z,62.10
2017-10-16T04:32:54.984Z,61.60
2017-10-16T04:35:23.404Z,61.60
2017-10-16T04:37:52.804Z,61.70
2017-10-16T04:40:21.003Z,62.20
2017-10-16T04:42:49.143Z,61.80
2017-10-16T04:45:17.604Z,61.80
2017-10-16T04:47:45.911Z,62.00
2017-10-16T04:50:15.204Z,61.80
2017-10-16T04:52:43.443Z,61.80
2017-10-16T04:55:11.753Z,62.70
2017-10-16T04:57:40.930Z,62.30
2017-10-16T05:00:09.229Z,62.30
2017-10-16T05:02:37.393Z,62.70
2017-10-16T05:05:05.793Z,62.80
2017-10-16T05:07:34.873Z,63.50
2017-10-16T05:10:03.153Z,63.50
2017-10-16T05:12:32.133Z,64.30
2017-10-16T05:15:00.713Z,63.60
2017-10-16T05:17:29.333Z,63.70
2017-10-16T05:19:57.693Z,63.90
2017-10-16T05:22:27.033Z,64.20
2017-10-16T05:24:55.230Z,64.10
2017-10-16T05:27:23.530Z,64.10
2017-10-16T05:29:51.629Z,63.10
2017-10-16T05:32:19.950Z,63.50
2017-10-16T05:34:48.470Z,63.90
2017-10-16T05:37:17.629Z,63.20
2017-10-16T05:39:45.970Z,63.20
2017-10-16T05:42:14.646Z,63.50
2017-10-16T05:44:43.050Z,63.60
2017-10-16T05:47:11.590Z,63.70
2017-10-16T05:49:40.793Z,63.90
2017-10-16T05:52:09.870Z,63.70
2017-10-16T05:54:38.049Z,63.70
2017-10-16T05:57:06.848Z,63.70
2017-10-16T05:59:35.788Z,64.20
2017-10-16T06:02:04.628Z,64.20
2017-10-16T06:04:33.948Z,64.40
2017-10-16T06:07:02.488Z,64.40
2017-10-16T06:09:31.069Z,65.10
2017-10-16T06:11:59.707Z,64.80
2017-10-16T06:14:28.149Z,65.00
2017-10-16T06:16:57.388Z,65.20
2017-10-16T06:19:25.928Z,65.20
2017-10-16T06:21:55.010Z,65.30
2017-10-16T06:24:23.288Z,65.30
2017-10-16T06:26:51.744Z,65.20
2017-10-16T06:29:20.149Z,65.40
2017-10-16T06:31:48.448Z,65.60
2017-10-16T06:34:17.730Z,66.00
2017-10-16T06:36:46.807Z,66.10
2017-10-16T06:39:15.408Z,66.10
2017-10-16T06:41:43.688Z,65.40
2017-10-16T06:44:12.809Z,66.10
2017-10-16T06:46:41.053Z,66.10
2017-10-16T06:49:10.159Z,66.40
2017-10-16T06:51:39.479Z,66.60
2017-10-16T06:54:07.800Z,66.40
2017-10-16T06:56:36.198Z,66.30
2017-10-16T06:59:04.387Z,66.20
2017-10-16T07:01:33.379Z,66.40
2017-10-16T07:04:02.439Z,66.70
2017-10-16T07:06:30.755Z,66.70
2017-10-16T07:08:59.180Z,66.80
2017-10-16T07:11:27.698Z,66.40
2017-10-16T07:13:55.966Z,66.00
2017-10-16T07:16:24.566Z,66.50
2017-10-16T07:18:53.531Z,66.10
2017-10-16T07:21:21.911Z,66.00
2017-10-16T07:23:51.131Z,65.90
2017-10-16T07:26:20.431Z,65.70
2017-10-16T07:28:49.491Z,65.50
2017-10-16T07:31:18.421Z,65.50
2017-10-16T07:33:47.610Z,64.70
2017-10-16T07:36:16.690Z,64.20
2017-10-16T07:38:45.850Z,64.20
2017-10-16T07:41:14.351Z,64.10
2017-10-16T07:43:42.678Z,63.70
2017-10-16T07:46:12.051Z,63.00
2017-10-16T07:48:40.713Z,62.90
2017-10-16T07:51:09.310Z,62.80
2017-10-16T07:53:38.190Z,63.00
2017-10-16T07:56:06.691Z,62.30
2017-10-16T07:58:35.531Z,61.70
2017-10-16T08:01:04.770Z,61.50
2017-10-16T08:03:33.030Z,61.60
2017-10-16T08:06:01.332Z,61.80
2017-10-16T08:08:30.411Z,61.20
2017-10-16T08:10:58.790Z,61.20
2017-10-16T08:13:27.138Z,60.70
2017-10-16T08:15:55.351Z,60.80
2017-10-16T08:18:23.431Z,60.60
2017-10-16T08:20:52.411Z,58.50
2017-10-16T08:23:20.790Z,58.40
2017-10-16T08:25:49.071Z,58.60
2017-10-16T08:28:17.513Z,58.70
2017-10-16T08:30:45.791Z,58.90
2017-10-16T08:33:14.511Z,59.30
2017-10-16T08:35:42.891Z,59.00
2017-10-16T08:38:12.093Z,58.40
2017-10-16T08:40:41.291Z,61.70
2017-10-16T08:43:10.830Z,63.10
2017-10-16T08:45:39.551Z,63.10
2017-10-16T08:48:08.147Z,64.00
2017-10-16T08:50:36.454Z,64.60
2017-10-16T08:53:05.928Z,65.70
2017-10-16T08:55:34.050Z,65.80
2017-10-16T08:58:02.913Z,65.90
2017-10-16T09:00:33.020Z,65.40
2017-10-16T09:03:02.319Z,64.20
2017-10-16T09:05:31.520Z,63.70
2017-10-16T09:08:00.600Z,64.20
2017-10-16T09:10:28.699Z,64.20
2017-10-16T09:12:58.078Z,64.60
2017-10-16T09:15:27.379Z,65.30
2017-10-16T09:17:55.859Z,65.30
2017-10-16T09:20:24.098Z,65.40
2017-10-16T09:22:52.420Z,65.40
2017-10-16T09:25:21.614Z,65.50
2017-10-16T09:27:50.918Z,66.00
2017-10-16T09:30:19.875Z,66.30
2017-10-16T09:32:48.194Z,66.20
2017-10-16T09:35:16.855Z,66.50
2017-10-16T09:37:45.255Z,66.80
2017-10-16T09:40:14.435Z,67.00
2017-10-16T09:42:42.827Z,67.00
2017-10-16T09:45:11.994Z,67.50
2017-10-16T09:47:40.519Z,67.50
2017-10-16T09:50:09.695Z,67.00
2017-10-16T09:52:39.235Z,66.70
2017-10-16T09:55:07.634Z,66.70
2017-10-16T09:57:36.156Z,66.50
2017-10-16T10:00:04.435Z,66.40
2017-10-16T10:02:33.415Z,66.60
2017-10-16T10:05:02.015Z,66.40
2017-10-16T10:07:31.534Z,66.50
2017-10-16T10:09:59.875Z,66.50
2017-10-16T10:12:28.534Z,67.10
2017-10-16T10:14:57.055Z,66.90
2017-10-16T10:17:26.234Z,66.80
2017-10-16T10:19:54.614Z,66.40
2017-10-16T10:22:23.074Z,66.50
2017-10-16T10:24:51.479Z,65.80
2017-10-16T10:27:19.855Z,65.00
2017-10-16T10:29:48.435Z,64.70
2017-10-16T10:32:17.141Z,64.80
2017-10-16T10:34:46.114Z,63.80
2017-10-16T10:37:14.395Z,63.70
2017-10-16T10:39:42.561Z,63.40
2017-10-16T10:42:10.841Z,63.10
2017-10-16T10:44:39.822Z,63.10
2017-10-16T10:47:08.201Z,63.20
2017-10-16T10:49:36.443Z,62.90
2017-10-16T10:52:04.563Z,62.40
2017-10-16T10:54:34.382Z,61.50
2017-10-16T10:57:03.702Z,61.90
2017-10-16T10:59:31.922Z,61.90
2017-10-16T11:02:00.210Z,61.90
2017-10-16T11:04:29.341Z,61.80
2017-10-16T11:06:58.505Z,61.70
2017-10-16T11:09:26.826Z,61.70
2017-10-16T11:11:55.167Z,61.30
2017-10-16T11:14:23.407Z,60.80
2017-10-16T11:16:51.926Z,61.60
2017-10-16T11:19:20.187Z,60.60
2017-10-16T11:21:48.537Z,59.70
2017-10-16T11:24:17.150Z,59.80
2017-10-16T11:26:45.629Z,60.30
2017-10-16T11:29:14.108Z,60.50
2017-10-16T11:31:42.409Z,61.20
2017-10-16T11:34:11.388Z,60.30
2017-10-16T11:36:39.789Z,60.30
2017-10-16T11:39:08.970Z,59.80
2017-10-16T11:41:37.110Z,59.80
2017-10-16T11:44:05.519Z,59.70
2017-10-16T11:46:34.818Z,58.70
2017-10-16T11:49:03.867Z,59.20
2017-10-16T11:51:32.338Z,58.60
2017-10-16T11:54:00.818Z,58.70
2017-10-16T11:56:29.437Z,57.90
2017-10-16T11:58:57.918Z,57.40
2017-10-16T12:01:26.608Z,57.80
2017-10-16T12:03:55.818Z,57.00
2017-10-16T12:06:24.278Z,57.00
2017-10-16T12:08:52.798Z,57.30
2017-10-16T12:11:21.898Z,55.60
2017-10-16T12:13:51.019Z,55.30
2017-10-16T12:16:19.637Z,55.30
2017-10-16T12:18:47.978Z,54.70
2017-10-16T12:21:16.297Z,54.30
2017-10-16T12:23:44.459Z,54.10
2017-10-16T12:26:13.678Z,54.80
2017-10-16T12:28:43.162Z,55.80
2017-10-16T12:31:11.557Z,55.30
2017-10-16T12:33:40.040Z,55.10
2017-10-16T12:36:08.439Z,55.50
2017-10-16T12:38:37.437Z,56.30
2017-10-16T12:41:05.878Z,56.20
2017-10-16T12:43:34.158Z,55.90
2017-10-16T12:46:03.618Z,55.50
2017-10-16T12:48:32.458Z,55.40
2017-10-16T12:51:01.138Z,55.10
2017-10-16T12:53:30.437Z,55.20
2017-10-16T12:55:58.981Z,55.10
2017-10-16T12:58:27.298Z,56.40
2017-10-16T13:00:56.498Z,56.60
2017-10-16T13:03:25.698Z,56.40
2017-10-16T13:05:54.880Z,57.20
2017-10-16T13:08:23.558Z,56.90
2017-10-16T13:10:52.158Z,57.70
2017-10-16T13:13:21.358Z,57.30
2017-10-16T13:15:50.558Z,57.10
2017-10-16T13:18:19.138Z,57.00
2017-10-16T13:20:48.177Z,56.70
2017-10-16T13:23:16.798Z,56.60
2017-10-16T13:25:45.398Z,56.40
2017-10-16T13:28:13.660Z,56.10
2017-10-16T13:30:42.038Z,57.00
2017-10-16T13:33:10.738Z,57.30
2017-10-16T13:35:39.317Z,57.70
2017-10-16T13:38:07.619Z,59.80
2017-10-16T13:40:36.079Z,61.00
2017-10-16T13:43:05.258Z,59.10
2017-10-16T13:45:33.637Z,59.10
2017-10-16T13:48:02.017Z,58.70
2017-10-16T13:50:30.297Z,58.40
2017-10-16T13:52:58.698Z,57.90
2017-10-16T13:55:28.505Z,56.90
2017-10-16T13:58:05.791Z,55.20
2017-10-16T14:00:47.586Z,55.10
2017-10-16T14:03:18.035Z,54.60
2017-10-16T14:05:46.455Z,54.60
2017-10-16T14:08:15.034Z,54.10
2017-10-16T14:10:43.206Z,53.30
2017-10-16T14:13:11.496Z,54.10
2017-10-16T14:15:40.085Z,53.90
2017-10-16T14:18:08.453Z,53.10
2017-10-16T14:20:37.036Z,52.20
2017-10-16T14:23:05.326Z,52.50
2017-10-16T14:25:35.218Z,52.30
2017-10-16T14:28:03.607Z,52.30
2017-10-16T14:30:32.413Z,51.90
2017-10-16T14:33:01.414Z,52.00
2017-10-16T14:35:30.692Z,52.50
2017-10-16T14:37:59.593Z,52.50
2017-10-16T14:40:28.673Z,50.90
2017-10-16T14:42:57.472Z,50.90
2017-10-16T14:45:26.555Z,50.80
2017-10-16T14:47:55.257Z,50.80
2017-10-16T14:50:24.634Z,51.70
2017-10-16T14:52:52.821Z,51.60
2017-10-16T14:55:22.657Z,51.80
2017-10-16T14:57:52.681Z,51.80
2017-10-16T15:00:22.036Z,51.70
2017-10-16T15:02:50.314Z,51.50
2017-10-16T15:05:18.589Z,51.70
2017-10-16T15:07:47.056Z,51.80
2017-10-16T15:10:15.525Z,53.00
2017-10-16T15:12:43.834Z,53.00
2017-10-16T15:15:12.395Z,53.10
2017-10-16T15:17:40.854Z,53.70
2017-10-16T15:20:09.693Z,54.70
2017-10-16T15:22:38.893Z,55.20
2017-10-16T15:25:08.215Z,55.20
2017-10-16T15:27:36.933Z,55.20
2017-10-16T15:30:05.353Z,55.90
2017-10-16T15:32:34.035Z,56.60
2017-10-16T15:35:03.234Z,57.00
2017-10-16T15:37:31.613Z,56.90
2017-10-16T15:40:00.494Z,56.80
2017-10-16T15:42:29.193Z,57.10
2017-10-16T15:44:57.694Z,57.00
2017-10-16T15:47:26.454Z,57.10
2017-10-16T15:49:55.334Z,58.30
2017-10-16T15:52:23.793Z,58.30
2017-10-16T15:54:52.254Z,58.70
2017-10-16T15:57:21.034Z,58.90
2017-10-16T15:59:49.756Z,59.70
2017-10-16T16:02:18.055Z,59.70
2017-10-16T16:04:47.355Z,60.20
2017-10-16T16:07:16.594Z,60.20
2017-10-16T16:09:44.934Z,60.20
2017-10-16T16:12:14.342Z,59.30
2017-10-16T16:14:43.634Z,59.60
2017-10-16T16:17:13.113Z,59.40
2017-10-16T16:19:41.614Z,59.40
2017-10-16T16:22:09.892Z,59.80
2017-10-16T16:24:38.175Z,60.70
2017-10-16T16:27:07.252Z,59.70
2017-10-16T16:29:35.854Z,59.70
2017-10-16T16:32:05.072Z,60.20
2017-10-16T16:34:33.771Z,60.20
2017-10-16T16:37:02.312Z,60.00
2017-10-16T16:39:31.612Z,59.60
2017-10-16T16:42:01.212Z,59.20
2017-10-16T16:44:30.511Z,59.60
2017-10-16T16:46:59.071Z,59.50
2017-10-16T16:49:27.705Z,59.60
2017-10-16T16:51:57.072Z,59.00
2017-10-16T16:54:25.532Z,59.00
2017-10-16T16:56:54.132Z,58.90
2017-10-16T16:59:22.933Z,59.10
2017-10-16T17:01:52.331Z,59.20
2017-10-16T17:04:20.752Z,59.20
2017-10-16T17:06:49.272Z,59.80
2017-10-16T17:09:17.413Z,60.40
2017-10-16T17:11:45.952Z,60.40
2017-10-16T17:14:14.152Z,60.40
2017-10-16T17:16:42.472Z,60.10
2017-10-16T17:19:10.832Z,60.10
2017-10-16T17:21:39.354Z,60.20
2017-10-16T17:24:07.761Z,60.20
2017-10-16T17:26:36.233Z,59.80
2017-10-16T17:29:05.331Z,60.00
2017-10-16T17:31:34.712Z,60.20
2017-10-16T17:34:03.153Z,60.00
2017-10-16T17:36:31.474Z,60.30
2017-10-16T17:39:00.552Z,61.10
2017-10-16T17:41:28.952Z,61.10
2017-10-16T17:43:58.273Z,62.00
2017-10-16T17:46:26.932Z,61.80
2017-10-16T17:48:55.392Z,62.20
2017-10-16T17:51:23.992Z,62.40
2017-10-16T17:53:52.514Z,62.80
2017-10-16T17:56:20.960Z,63.10
2017-10-16T17:58:50.332Z,63.60
2017-10-16T18:01:18.932Z,63.50
2017-10-16T18:03:47.533Z,64.30
2017-10-16T18:06:16.592Z,64.20
2017-10-16T18:08:45.073Z,64.10
2017-10-16T18:11:13.654Z,64.10
2017-10-16T18:13:41.979Z,64.00
2017-10-16T18:16:10.213Z,64.50
2017-10-16T18:18:38.692Z,64.60
2017-10-16T18:21:07.232Z,64.50
2017-10-16T18:23:35.673Z,64.40
2017-10-16T18:26:04.954Z,65.30
2017-10-16T18:28:33.273Z,64.50
2017-10-16T18:31:01.812Z,64.50
2017-10-16T18:33:30.133Z,64.40
2017-10-16T18:35:58.372Z,64.40
2017-10-16T18:38:26.879Z,64.40
2017-10-16T18:40:56.173Z,64.70
2017-10-16T18:43:25.553Z,65.00
2017-10-16T18:45:54.034Z,64.80
2017-10-16T18:48:22.432Z,65.10
2017-10-16T18:50:52.054Z,65.00
2017-10-16T18:53:21.333Z,65.30
2017-10-16T18:55:50.512Z,65.00
2017-10-16T18:58:19.233Z,64.90
2017-10-16T19:00:47.573Z,64.80
2017-10-16T19:03:15.935Z,64.40
2017-10-16T19:05:44.129Z,64.60
2017-10-16T19:08:12.628Z,64.70
2017-10-16T19:10:41.795Z,64.50
2017-10-16T19:13:10.088Z,64.30
2017-10-16T19:15:39.592Z,63.90
2017-10-16T19:18:07.956Z,63.90
2017-10-16T19:20:36.451Z,63.60
2017-10-16T19:23:04.832Z,63.50
2017-10-16T19:25:33.211Z,63.90
2017-10-16T19:28:02.632Z,64.00
2017-10-16T19:30:31.091Z,64.00
2017-10-16T19:33:00.172Z,64.10
2017-10-16T19:35:28.671Z,64.00
2017-10-16T19:37:58.278Z,63.50
2017-10-16T19:40:27.573Z,63.60
2017-10-16T19:42:56.252Z,63.60
2017-10-16T19:45:24.593Z,63.70
2017-10-16T19:47:53.034Z,63.30
2017-10-16T19:50:21.592Z,63.20
2017-10-16T19:52:50.111Z,63.50
2017-10-16T19:55:18.572Z,63.40
2017-10-16T19:57:47.614Z,63.50
2017-10-16T20:00:16.152Z,63.70
2017-10-16T20:02:44.515Z,63.40
2017-10-16T20:05:14.013Z,63.80
2017-10-16T20:07:43.392Z,63.90
2017-10-16T20:10:11.938Z,63.80
2017-10-16T20:12:40.511Z,63.80
2017-10-16T20:15:09.012Z,63.90
2017-10-16T20:17:37.291Z,63.90
2017-10-16T20:20:05.973Z,63.90
2017-10-16T20:22:34.332Z,63.90
2017-10-16T20:25:02.972Z,63.70
2017-10-16T20:27:31.492Z,63.70
2017-10-16T20:29:59.733Z,63.90
2017-10-16T20:32:28.213Z,64.00
2017-10-16T20:34:56.634Z,64.10
2017-10-16T20:37:24.913Z,64.10
2017-10-16T20:39:53.412Z,64.10
2017-10-16T20:42:21.853Z,64.10
2017-10-16T20:44:50.093Z,64.20
2017-10-16T20:47:18.452Z,64.50
2017-10-16T20:49:47.158Z,64.40
2017-10-16T20:52:16.253Z,64.30
2017-10-16T20:54:44.533Z,64.40
2017-10-16T20:57:13.033Z,64.50
2017-10-16T20:59:42.172Z,64.70
2017-10-16T21:02:10.373Z,64.60
2017-10-16T21:04:39.072Z,64.40
2017-10-16T21:07:07.473Z,64.70
2017-10-16T21:09:36.992Z,65.00
2017-10-16T21:12:05.394Z,65.00
2017-10-16T21:14:34.071Z,64.90
2017-10-16T21:17:02.532Z,65.00
2017-10-16T21:19:31.171Z,65.10
2017-10-16T21:21:59.569Z,65.20
2017-10-16T21:24:28.749Z,65.70
2017-10-16T21:26:57.128Z,65.60
2017-10-16T21:29:26.528Z,65.90
2017-10-16T21:31:54.708Z,65.70
2017-10-16T21:34:23.190Z,65.90
2017-10-16T21:36:51.548Z,66.00
2017-10-16T21:39:19.936Z,65.80
2017-10-16T21:41:49.030Z,65.50
2017-10-16T21:44:18.728Z,65.60
2017-10-16T21:46:47.130Z,65.50
2017-10-16T21:49:15.728Z,65.50
2017-10-16T21:51:44.967Z,65.40
2017-10-16T21:54:13.688Z,65.40
2017-10-16T21:56:42.948Z,65.70
2017-10-16T21:59:11.387Z,65.10
2017-10-16T22:01:40.467Z,65.20
2017-10-16T22:04:08.848Z,65.20
2017-10-16T22:06:37.170Z,65.20
2017-10-16T22:09:05.548Z,65.30
2017-10-16T22:11:34.288Z,65.40
2017-10-16T22:14:02.548Z,65.30
2017-10-16T22:16:31.007Z,65.50
2017-10-16T22:18:59.487Z,65.50
2017-10-16T22:21:27.788Z,65.60
2017-10-16T22:23:56.448Z,65.70
2017-10-16T22:26:25.068Z,65.60
2017-10-16T22:28:53.548Z,65.70
2017-10-16T22:31:21.908Z,65.60
2017-10-16T22:33:50.531Z,65.80
2017-10-16T22:36:18.768Z,65.80
2017-10-16T22:38:47.468Z,65.90
2017-10-16T22:41:15.810Z,66.00
2017-10-16T22:43:44.227Z,66.00
2017-10-16T22:46:13.305Z,66.10
2017-10-16T22:48:43.410Z,66.10
2017-10-16T22:51:11.611Z,66.00
2017-10-16T22:53:40.577Z,66.20
2017-10-16T22:56:09.494Z,66.10
2017-10-16T22:58:39.186Z,66.30
2017-10-16T23:01:07.768Z,66.30
2017-10-16T23:03:35.946Z,66.20
2017-10-16T23:06:04.954Z,66.70
2017-10-16T23:08:34.114Z,66.10
2017-10-16T23:11:02.314Z,66.10
2017-10-16T23:13:30.678Z,66.30
2017-10-16T23:15:59.172Z,66.50
2017-10-16T23:18:27.553Z,66.00
2017-10-16T23:20:56.093Z,66.00
2017-10-16T23:23:24.612Z,66.40
2017-10-16T23:25:53.854Z,65.60
2017-10-16T23:28:22.301Z,65.50
2017-10-16T23:30:51.373Z,65.20
2017-10-16T23:33:20.293Z,65.20
2017-10-16T23:35:49.365Z,64.40
2017-10-16T23:38:17.507Z,64.40
2017-10-16T23:40:46.039Z,64.40
2017-10-16T23:43:15.258Z,64.10
2017-10-16T23:45:43.677Z,64.10
2017-10-16T23:48:12.125Z,64.00
2017-10-16T23:50:40.323Z,64.30
2017-10-16T23:53:08.757Z,65.10
2017-10-16T23:55:37.058Z,64.90
2017-10-16T23:58:05.280Z,65.10
